This is the latest recevied weather packets stored in our database for station/object S56IAR-13. If no packets are shown the sender has not sent any weather packets the latest 10 day(s).
| Time | Temp. | Humidity | Pressure | Rain* | Wind** | Luminosity | Snow |
|---|---|---|---|---|---|---|---|
| 1778154004 | 19.44° C | 57% | 959.3 hPa | 0 mm | - | 254 W/m² | - |
| 1778153705 | 18.33° C | 58% | 959.4 hPa | 0 mm | - | 226 W/m² | - |
| 1778152203 | 18.89° C | 57% | 959.7 hPa | 0 mm | - | 409 W/m² | - |
| 1778151133 | 19.44° C | 57% | 959.6 hPa | 0 mm | - | 188 W/m² | - |
| 1778150705 | 19.44° C | 57% | 959.8 hPa | 0 mm | - | 641 W/m² | - |
| 1778149503 | 19.44° C | 59% | 959.8 hPa | 0 mm | - | 824 W/m² | - |
| 1778148905 | 19.44° C | 64% | 959.9 hPa | 0 mm | - | 627 W/m² | - |
| 1778147703 | 17.78° C | 68% | 960 hPa | 0 mm | - | 205 W/m² | - |
| 1778143804 | 17.78° C | 68% | 960 hPa | 0 mm | - | 404 W/m² | - |
| 1778143505 | 17.78° C | 68% | 960.1 hPa | 0 mm | - | 262 W/m² | - |
| 1778142004 | 16.67° C | 76% | 959.9 hPa | 0 mm | - | 700 W/m² | - |
| 1778140035 | 15.56° C | 84% | 959.9 hPa | 0 mm | - | 662 W/m² | - |
| 1778139305 | 15° C | 87% | 959.7 hPa | 0 mm | - | 107 W/m² | - |
| 1778137803 | 12.22° C | 99% | 959.7 hPa | 0 mm | - | 83 W/m² | - |
| 1778135703 | 12.22° C | 99% | 959.7 hPa | 0 mm | - | 95 W/m² | - |
| 1778134333 | 10.56° C | 99% | 959.8 hPa | 0 mm | - | 97 W/m² | - |
| 1778133303 | 10° C | 99% | 959.6 hPa | 0 mm | - | 68 W/m² | - |
| 1778132405 | 9.44° C | 99% | 959.7 hPa | 0 mm | - | 61 W/m² | - |
| 1778129405 | 8.33° C | 99% | 959 hPa | 0 mm | - | 23 W/m² | - |
| 1778127734 | 8.33° C | 99% | 959.1 hPa | 0 mm | - | 12 W/m² | - |
| 1778124305 | 8.33° C | 99% | 958.9 hPa | 0 mm | - | 0 W/m² | - |
| 1778122205 | 8.89° C | 99% | 958.5 hPa | 0 mm | - | 0 W/m² | - |
| 1778120704 | 9.44° C | 99% | 958.6 hPa | 0 mm | - | 0 W/m² | - |
| 1778119503 | 9.44° C | 99% | 958.3 hPa | 0 mm | - | 0 W/m² | - |
| 1778118605 | 10° C | 99% | 958.3 hPa | 0 mm | - | 0 W/m² | - |
* Rain latest hour (hover to see other rain measurements)
** Current wind speed in m/s (hover to see current wind gust speed)